sensor_id;sensor_type;location;lat;lon;timestamp;pressure;altitude;pressure_sealevel;temperature;humidity
73566;BME280;61846;52.970;-3.168;2023-04-23T05:21:29;99139.51;;;2.17;84.38
73566;BME280;61846;52.970;-3.168;2023-04-23T05:23:52;99135.66;;;6.02;72.02
73566;BME280;61846;52.970;-3.168;2023-04-23T05:26:17;99138.97;;;7.28;65.45
73566;BME280;61846;52.970;-3.168;2023-04-23T05:28:43;99139.36;;;8.64;60.08
73566;BME280;61846;52.970;-3.168;2023-04-23T05:31:08;99136.50;;;9.29;57.78
73566;BME280;61846;52.970;-3.168;2023-04-23T05:33:34;99135.98;;;9.52;55.93
73566;BME280;61846;52.970;-3.168;2023-04-23T05:36:00;99136.09;;;9.76;55.48
73566;BME280;61846;52.970;-3.168;2023-04-23T05:38:25;99131.66;;;10.19;53.49
73566;BME280;61846;52.970;-3.168;2023-04-23T05:40:51;99130.12;;;10.58;52.08
73566;BME280;61846;52.970;-3.168;2023-04-23T05:43:16;99133.96;;;10.78;50.62
73566;BME280;61846;52.970;-3.168;2023-04-23T05:45:41;99129.73;;;10.90;51.19
73566;BME280;61846;52.970;-3.168;2023-04-23T05:48:07;99127.52;;;11.00;50.30
73566;BME280;61846;52.970;-3.168;2023-04-23T05:50:32;99128.14;;;10.69;49.56
73566;BME280;61846;52.970;-3.168;2023-04-23T05:52:57;99128.09;;;10.94;49.70
73566;BME280;61846;52.970;-3.168;2023-04-23T05:55:23;99128.23;;;10.84;49.31
73566;BME280;61846;52.970;-3.168;2023-04-23T05:57:48;99127.86;;;11.13;49.25
73566;BME280;61846;52.970;-3.168;2023-04-23T06:00:14;99131.09;;;11.64;47.99
73566;BME280;61846;52.970;-3.168;2023-04-23T06:02:39;99133.30;;;11.71;48.14
73566;BME280;61846;52.970;-3.168;2023-04-23T06:05:05;99131.13;;;10.51;49.48
73566;BME280;61846;52.970;-3.168;2023-04-23T06:07:30;99133.70;;;11.38;48.94
73566;BME280;61846;52.970;-3.168;2023-04-23T06:09:55;99134.48;;;11.02;49.55
73566;BME280;61846;52.970;-3.168;2023-04-23T06:12:21;99136.17;;;11.51;49.05
73566;BME280;61846;52.970;-3.168;2023-04-23T06:14:46;99136.03;;;11.55;48.41
73566;BME280;61846;52.970;-3.168;2023-04-23T06:17:12;99137.46;;;11.72;48.31
73566;BME280;61846;52.970;-3.168;2023-04-23T06:19:38;99138.67;;;11.81;47.18
73566;BME280;61846;52.970;-3.168;2023-04-23T06:22:04;99139.62;;;10.62;48.29
73566;BME280;61846;52.970;-3.168;2023-04-23T06:24:29;99139.72;;;11.93;47.84
73566;BME280;61846;52.970;-3.168;2023-04-23T06:26:54;99136.33;;;11.13;47.63
73566;BME280;61846;52.970;-3.168;2023-04-23T06:29:20;99136.34;;;10.66;49.74
73566;BME280;61846;52.970;-3.168;2023-04-23T06:31:45;99135.69;;;10.74;49.96
73566;BME280;61846;52.970;-3.168;2023-04-23T06:34:11;99133.80;;;11.00;49.41
73566;BME280;61846;52.970;-3.168;2023-04-23T06:36:36;99140.75;;;9.71;51.31
73566;BME280;61846;52.970;-3.168;2023-04-23T06:39:02;99142.72;;;10.10;51.96
73566;BME280;61846;52.970;-3.168;2023-04-23T06:41:28;99146.42;;;9.35;53.18
73566;BME280;61846;52.970;-3.168;2023-04-23T06:43:54;99147.32;;;9.13;54.07
73566;BME280;61846;52.970;-3.168;2023-04-23T06:46:19;99146.47;;;9.27;53.90
73566;BME280;61846;52.970;-3.168;2023-04-23T06:48:44;99146.43;;;10.15;52.86
73566;BME280;61846;52.970;-3.168;2023-04-23T06:51:10;99144.88;;;10.11;51.43
73566;BME280;61846;52.970;-3.168;2023-04-23T06:53:35;99150.67;;;9.75;52.04
73566;BME280;61846;52.970;-3.168;2023-04-23T06:56:00;99151.81;;;10.11;51.95
73566;BME280;61846;52.970;-3.168;2023-04-23T06:58:26;99154.10;;;10.30;51.10
73566;BME280;61846;52.970;-3.168;2023-04-23T07:00:51;99149.90;;;10.71;50.82
73566;BME280;61846;52.970;-3.168;2023-04-23T07:03:16;99148.44;;;10.47;50.51
73566;BME280;61846;52.970;-3.168;2023-04-23T07:05:42;99147.91;;;11.13;49.68
73566;BME280;61846;52.970;-3.168;2023-04-23T07:08:07;99151.46;;;10.37;50.06
73566;BME280;61846;52.970;-3.168;2023-04-23T07:10:33;99150.82;;;10.41;50.84
73566;BME280;61846;52.970;-3.168;2023-04-23T07:12:59;99154.05;;;10.86;49.32
73566;BME280;61846;52.970;-3.168;2023-04-23T07:15:24;99153.30;;;10.59;49.34
73566;BME280;61846;52.970;-3.168;2023-04-23T07:17:49;99158.83;;;9.24;52.99
73566;BME280;61846;52.970;-3.168;2023-04-23T07:20:15;99161.29;;;9.02;53.75
73566;BME280;61846;52.970;-3.168;2023-04-23T07:22:40;99157.64;;;9.42;54.02
73566;BME280;61846;52.970;-3.168;2023-04-23T07:25:05;99158.58;;;9.78;53.45
73566;BME280;61846;52.970;-3.168;2023-04-23T07:27:31;99155.54;;;9.61;52.95
73566;BME280;61846;52.970;-3.168;2023-04-23T07:29:57;99154.67;;;9.85;52.77
73566;BME280;61846;52.970;-3.168;2023-04-23T07:32:22;99152.84;;;10.18;53.36
73566;BME280;61846;52.970;-3.168;2023-04-23T07:34:48;99148.20;;;10.62;50.63
73566;BME280;61846;52.970;-3.168;2023-04-23T07:37:13;99148.54;;;10.86;49.84
73566;BME280;61846;52.970;-3.168;2023-04-23T07:39:38;99150.16;;;11.44;48.36
73566;BME280;61846;52.970;-3.168;2023-04-23T07:42:04;99148.53;;;11.89;47.57
73566;BME280;61846;52.970;-3.168;2023-04-23T07:44:29;99147.53;;;11.14;47.77
73566;BME280;61846;52.970;-3.168;2023-04-23T07:46:55;99151.63;;;11.50;48.05
73566;BME280;61846;52.970;-3.168;2023-04-23T07:49:20;99157.38;;;11.41;47.80
73566;BME280;61846;52.970;-3.168;2023-04-23T07:51:47;99155.07;;;10.71;48.95
73566;BME280;61846;52.970;-3.168;2023-04-23T07:54:11;99154.19;;;10.51;49.60
73566;BME280;61846;52.970;-3.168;2023-04-23T07:56:37;99152.67;;;11.18;49.35
73566;BME280;61846;52.970;-3.168;2023-04-23T07:59:03;99153.04;;;10.23;52.31
73566;BME280;61846;52.970;-3.168;2023-04-23T08:01:28;99154.09;;;10.91;51.40
73566;BME280;61846;52.970;-3.168;2023-04-23T08:03:53;99152.81;;;10.82;50.40
73566;BME280;61846;52.970;-3.168;2023-04-23T08:06:18;99154.34;;;10.94;51.41
73566;BME280;61846;52.970;-3.168;2023-04-23T08:08:44;99160.64;;;10.54;51.84
73566;BME280;61846;52.970;-3.168;2023-04-23T08:11:11;99160.69;;;10.49;52.46
73566;BME280;61846;52.970;-3.168;2023-04-23T08:13:36;99159.14;;;10.98;52.54
73566;BME280;61846;52.970;-3.168;2023-04-23T08:16:01;99159.15;;;11.25;51.72
73566;BME280;61846;52.970;-3.168;2023-04-23T08:18:26;99159.11;;;10.40;52.97
73566;BME280;61846;52.970;-3.168;2023-04-23T08:20:53;99163.03;;;10.66;50.54
73566;BME280;61846;52.970;-3.168;2023-04-23T08:23:17;99162.45;;;10.47;50.75
73566;BME280;61846;52.970;-3.168;2023-04-23T08:25:43;99163.57;;;10.47;51.66
73566;BME280;61846;52.970;-3.168;2023-04-23T08:28:08;99161.38;;;10.81;50.73
73566;BME280;61846;52.970;-3.168;2023-04-23T08:30:33;99166.05;;;11.35;50.17
73566;BME280;61846;52.970;-3.168;2023-04-23T08:32:59;99168.51;;;11.57;50.15
73566;BME280;61846;52.970;-3.168;2023-04-23T08:35:24;99170.13;;;11.95;48.25
73566;BME280;61846;52.970;-3.168;2023-04-23T08:37:50;99172.81;;;11.60;48.15
73566;BME280;61846;52.970;-3.168;2023-04-23T08:40:16;99171.91;;;11.08;48.94
73566;BME280;61846;52.970;-3.168;2023-04-23T08:42:42;99168.71;;;10.73;49.55
73566;BME280;61846;52.970;-3.168;2023-04-23T08:45:07;99173.20;;;10.48;51.13
73566;BME280;61846;52.970;-3.168;2023-04-23T08:47:32;99172.91;;;10.90;51.98
73566;BME280;61846;52.970;-3.168;2023-04-23T08:49:58;99174.71;;;10.82;51.88
73566;BME280;61846;52.970;-3.168;2023-04-23T08:52:25;99175.05;;;11.22;50.81
73566;BME280;61846;52.970;-3.168;2023-04-23T08:54:51;99176.16;;;10.57;50.73
73566;BME280;61846;52.970;-3.168;2023-04-23T08:57:15;99177.98;;;11.57;49.13
73566;BME280;61846;52.970;-3.168;2023-04-23T08:59:40;99177.24;;;11.41;49.28
73566;BME280;61846;52.970;-3.168;2023-04-23T09:02:06;99179.17;;;11.52;49.47
73566;BME280;61846;52.970;-3.168;2023-04-23T09:04:32;99180.55;;;11.09;49.56
73566;BME280;61846;52.970;-3.168;2023-04-23T09:06:56;99180.81;;;11.40;49.82
73566;BME280;61846;52.970;-3.168;2023-04-23T09:09:22;99180.37;;;11.20;49.93
73566;BME280;61846;52.970;-3.168;2023-04-23T09:11:47;99182.99;;;11.42;50.96
73566;BME280;61846;52.970;-3.168;2023-04-23T09:14:13;99185.27;;;11.61;50.46
73566;BME280;61846;52.970;-3.168;2023-04-23T09:16:39;99184.80;;;11.67;49.58
73566;BME280;61846;52.970;-3.168;2023-04-23T09:19:05;99185.45;;;11.72;49.95
73566;BME280;61846;52.970;-3.168;2023-04-23T09:21:29;99184.12;;;12.38;49.14
73566;BME280;61846;52.970;-3.168;2023-04-23T09:23:55;99183.16;;;11.71;49.95
73566;BME280;61846;52.970;-3.168;2023-04-23T09:26:21;99184.30;;;12.06;48.93
73566;BME280;61846;52.970;-3.168;2023-04-23T09:28:48;99185.12;;;12.28;48.60
73566;BME280;61846;52.970;-3.168;2023-04-23T09:31:11;99182.99;;;12.62;48.25
73566;BME280;61846;52.970;-3.168;2023-04-23T09:33:37;99186.06;;;12.60;48.88
73566;BME280;61846;52.970;-3.168;2023-04-23T09:36:08;99186.81;;;12.70;48.49
73566;BME280;61846;52.970;-3.168;2023-04-23T09:38:28;99190.40;;;12.64;48.67
73566;BME280;61846;52.970;-3.168;2023-04-23T09:40:55;99193.58;;;12.85;48.06
73566;BME280;61846;52.970;-3.168;2023-04-23T09:43:19;99191.41;;;13.14;47.03
73566;BME280;61846;52.970;-3.168;2023-04-23T09:45:48;99195.22;;;13.04;48.02
73566;BME280;61846;52.970;-3.168;2023-04-23T09:48:10;99197.12;;;12.48;48.33
73566;BME280;61846;52.970;-3.168;2023-04-23T09:50:37;99195.75;;;11.97;49.55
73566;BME280;61846;52.970;-3.168;2023-04-23T09:53:01;99199.19;;;12.32;49.68
73566;BME280;61846;52.970;-3.168;2023-04-23T09:55:28;99196.53;;;11.84;49.59
73566;BME280;61846;52.970;-3.168;2023-04-23T09:57:52;99202.28;;;12.08;49.77
73566;BME280;61846;52.970;-3.168;2023-04-23T10:00:18;99200.22;;;13.04;47.81
73566;BME280;61846;52.970;-3.168;2023-04-23T10:02:45;99200.27;;;13.12;48.45
73566;BME280;61846;52.970;-3.168;2023-04-23T10:05:14;99199.21;;;13.40;47.81
73566;BME280;61846;52.970;-3.168;2023-04-23T10:07:33;99199.37;;;13.33;48.36
73566;BME280;61846;52.970;-3.168;2023-04-23T10:09:58;99199.31;;;13.60;47.27
73566;BME280;61846;52.970;-3.168;2023-04-23T10:12:24;99197.09;;;13.24;45.96
73566;BME280;61846;52.970;-3.168;2023-04-23T10:14:49;99200.17;;;13.45;46.96
73566;BME280;61846;52.970;-3.168;2023-04-23T10:17:15;99199.27;;;12.81;47.65
73566;BME280;61846;52.970;-3.168;2023-04-23T10:19:42;99202.12;;;12.93;48.42
73566;BME280;61846;52.970;-3.168;2023-04-23T10:22:08;99201.90;;;13.25;48.31
73566;BME280;61846;52.970;-3.168;2023-04-23T10:24:32;99205.91;;;12.49;48.91
73566;BME280;61846;52.970;-3.168;2023-04-23T10:26:58;99207.87;;;12.80;48.07
73566;BME280;61846;52.970;-3.168;2023-04-23T10:29:26;99209.23;;;12.82;49.21
73566;BME280;61846;52.970;-3.168;2023-04-23T10:31:47;99215.27;;;12.97;48.00
73566;BME280;61846;52.970;-3.168;2023-04-23T10:34:12;99212.35;;;12.91;47.32
73566;BME280;61846;52.970;-3.168;2023-04-23T10:36:38;99216.02;;;12.89;48.90
73566;BME280;61846;52.970;-3.168;2023-04-23T10:39:03;99217.63;;;12.47;49.49
73566;BME280;61846;52.970;-3.168;2023-04-23T10:41:34;99216.70;;;12.47;49.80
73566;BME280;61846;52.970;-3.168;2023-04-23T10:43:54;99218.95;;;12.85;49.13
73566;BME280;61846;52.970;-3.168;2023-04-23T10:46:28;99218.62;;;12.47;49.81
73566;BME280;61846;52.970;-3.168;2023-04-23T10:48:50;99219.84;;;12.97;47.81
73566;BME280;61846;52.970;-3.168;2023-04-23T10:51:11;99220.49;;;13.28;49.01
73566;BME280;61846;52.970;-3.168;2023-04-23T10:53:37;99221.39;;;13.14;49.14
73566;BME280;61846;52.970;-3.168;2023-04-23T10:56:05;99223.78;;;13.09;49.15
73566;BME280;61846;52.970;-3.168;2023-04-23T11:00:53;99224.09;;;12.88;47.29
73566;BME280;61846;52.970;-3.168;2023-04-23T11:03:29;99223.42;;;12.44;48.99
73566;BME280;61846;52.970;-3.168;2023-04-23T11:05:44;99223.75;;;12.98;48.26
73566;BME280;61846;52.970;-3.168;2023-04-23T11:08:10;99224.62;;;12.99;47.83
73566;BME280;61846;52.970;-3.168;2023-04-23T11:13:19;99224.87;;;12.22;49.43
73566;BME280;61846;52.970;-3.168;2023-04-23T11:15:29;99225.02;;;12.00;49.03
73566;BME280;61846;52.970;-3.168;2023-04-23T11:17:58;99226.88;;;12.49;48.32
73566;BME280;61846;52.970;-3.168;2023-04-23T11:20:19;99231.42;;;12.99;47.89
73566;BME280;61846;52.970;-3.168;2023-04-23T11:22:45;99231.57;;;12.93;47.79
73566;BME280;61846;52.970;-3.168;2023-04-23T11:25:10;99235.57;;;11.74;48.72
73566;BME280;61846;52.970;-3.168;2023-04-23T11:27:37;99236.63;;;13.07;47.61
73566;BME280;61846;52.970;-3.168;2023-04-23T11:30:00;99237.78;;;13.09;46.17
73566;BME280;61846;52.970;-3.168;2023-04-23T11:32:27;99235.15;;;13.54;45.96
73566;BME280;61846;52.970;-3.168;2023-04-23T11:34:51;99234.00;;;13.12;46.73
73566;BME280;61846;52.970;-3.168;2023-04-23T11:37:17;99235.42;;;13.41;46.24
73566;BME280;61846;52.970;-3.168;2023-04-23T11:39:43;99239.20;;;12.43;48.24
73566;BME280;61846;52.970;-3.168;2023-04-23T11:42:09;99243.55;;;12.99;46.94
73566;BME280;61846;52.970;-3.168;2023-04-23T11:44:32;99248.01;;;12.88;46.51
73566;BME280;61846;52.970;-3.168;2023-04-23T11:46:59;99247.23;;;11.73;48.19
73566;BME280;61846;52.970;-3.168;2023-04-23T11:49:24;99247.13;;;12.49;46.11
73566;BME280;61846;52.970;-3.168;2023-04-23T11:51:49;99252.44;;;13.14;46.27
73566;BME280;61846;52.970;-3.168;2023-04-23T11:54:15;99256.99;;;13.46;45.33
73566;BME280;61846;52.970;-3.168;2023-04-23T11:56:41;99259.20;;;12.41;47.25
73566;BME280;61846;52.970;-3.168;2023-04-23T11:59:05;99261.11;;;12.67;47.30
73566;BME280;61846;52.970;-3.168;2023-04-23T12:01:42;99264.46;;;12.88;46.57
73566;BME280;61846;52.970;-3.168;2023-04-23T12:03:56;99264.87;;;11.78;48.29
73566;BME280;61846;52.970;-3.168;2023-04-23T12:06:21;99271.65;;;12.59;46.64
73566;BME280;61846;52.970;-3.168;2023-04-23T12:08:47;99272.03;;;12.98;46.58
73566;BME280;61846;52.970;-3.168;2023-04-23T12:11:12;99273.77;;;13.06;46.47
73566;BME280;61846;52.970;-3.168;2023-04-23T12:13:39;99277.34;;;12.92;46.52
73566;BME280;61846;52.970;-3.168;2023-04-23T12:16:04;99274.27;;;12.36;47.05
73566;BME280;61846;52.970;-3.168;2023-04-23T12:18:29;99274.79;;;11.38;48.98
73566;BME280;61846;52.970;-3.168;2023-04-23T12:20:53;99279.74;;;11.30;50.02
73566;BME280;61846;52.970;-3.168;2023-04-23T12:23:24;99276.87;;;12.24;48.23
73566;BME280;61846;52.970;-3.168;2023-04-23T12:25:45;99280.95;;;11.93;48.02
73566;BME280;61846;52.970;-3.168;2023-04-23T12:28:10;99283.12;;;11.76;48.35
73566;BME280;61846;52.970;-3.168;2023-04-23T12:30:42;99285.11;;;11.63;48.04
73566;BME280;61846;52.970;-3.168;2023-04-23T12:33:02;99287.21;;;11.50;49.39
73566;BME280;61846;52.970;-3.168;2023-04-23T12:35:38;99289.30;;;11.76;48.42
73566;BME280;61846;52.970;-3.168;2023-04-23T12:37:52;99289.42;;;11.00;49.33
73566;BME280;61846;52.970;-3.168;2023-04-23T12:40:17;99292.36;;;11.44;48.57
73566;BME280;61846;52.970;-3.168;2023-04-23T12:42:43;99294.22;;;11.73;47.47
73566;BME280;61846;52.970;-3.168;2023-04-23T12:45:09;99292.41;;;11.60;46.92
73566;BME280;61846;52.970;-3.168;2023-04-23T12:47:34;99294.73;;;11.80;47.46
73566;BME280;61846;52.970;-3.168;2023-04-23T12:50:00;99295.46;;;10.71;48.85
73566;BME280;61846;52.970;-3.168;2023-04-23T12:52:25;99295.15;;;10.92;48.90
73566;BME280;61846;52.970;-3.168;2023-04-23T12:54:51;99291.36;;;11.98;47.58
73566;BME280;61846;52.970;-3.168;2023-04-23T12:57:16;99289.79;;;12.09;47.10
73566;BME280;61846;52.970;-3.168;2023-04-23T12:59:42;99288.82;;;12.49;46.64
73566;BME280;61846;52.970;-3.168;2023-04-23T13:02:08;99291.81;;;12.99;44.94
73566;BME280;61846;52.970;-3.168;2023-04-23T13:04:34;99294.11;;;12.94;44.74
73566;BME280;61846;52.970;-3.168;2023-04-23T13:06:59;99292.34;;;13.32;44.41
73566;BME280;61846;52.970;-3.168;2023-04-23T13:09:25;99292.55;;;11.62;46.69
73566;BME280;61846;52.970;-3.168;2023-04-23T13:11:50;99296.53;;;12.38;45.06
73566;BME280;61846;52.970;-3.168;2023-04-23T13:14:15;99296.17;;;12.49;46.56
73566;BME280;61846;52.970;-3.168;2023-04-23T13:16:41;99296.63;;;11.82;46.56
73566;BME280;61846;52.970;-3.168;2023-04-23T13:19:06;99296.54;;;12.43;46.41
73566;BME280;61846;52.970;-3.168;2023-04-23T13:21:31;99297.42;;;10.93;47.98
73566;BME280;61846;52.970;-3.168;2023-04-23T13:23:57;99300.04;;;11.23;47.91
73566;BME280;61846;52.970;-3.168;2023-04-23T13:26:23;99303.28;;;10.97;49.58
73566;BME280;61846;52.970;-3.168;2023-04-23T13:28:47;99303.39;;;11.40;47.64
73566;BME280;61846;52.970;-3.168;2023-04-23T13:31:13;99302.78;;;11.47;48.73
73566;BME280;61846;52.970;-3.168;2023-04-23T13:33:38;99304.53;;;11.26;48.99
73566;BME280;61846;52.970;-3.168;2023-04-23T13:36:04;99306.70;;;11.12;49.22
73566;BME280;61846;52.970;-3.168;2023-04-23T13:38:29;99306.25;;;11.72;47.83
73566;BME280;61846;52.970;-3.168;2023-04-23T13:40:55;99307.61;;;11.36;48.62
73566;BME280;61846;52.970;-3.168;2023-04-23T13:43:21;99309.33;;;11.88;48.25
73566;BME280;61846;52.970;-3.168;2023-04-23T13:45:46;99311.90;;;11.61;46.06
73566;BME280;61846;52.970;-3.168;2023-04-23T13:48:13;99316.55;;;11.87;47.03
73566;BME280;61846;52.970;-3.168;2023-04-23T13:50:37;99311.64;;;12.50;43.90
73566;BME280;61846;52.970;-3.168;2023-04-23T13:53:02;99319.94;;;11.10;45.66
73566;BME280;61846;52.970;-3.168;2023-04-23T13:55:29;99318.89;;;11.53;48.38
73566;BME280;61846;52.970;-3.168;2023-04-23T13:57:54;99318.09;;;11.08;48.53
73566;BME280;61846;52.970;-3.168;2023-04-23T14:00:19;99314.13;;;11.83;46.46
73566;BME280;61846;52.970;-3.168;2023-04-23T14:02:45;99315.45;;;11.78;47.67
73566;BME280;61846;52.970;-3.168;2023-04-23T14:05:10;99313.87;;;11.99;45.80
73566;BME280;61846;52.970;-3.168;2023-04-23T14:07:36;99314.40;;;11.58;47.10
73566;BME280;61846;52.970;-3.168;2023-04-23T14:10:02;99322.73;;;11.91;46.59
73566;BME280;61846;52.970;-3.168;2023-04-23T14:12:27;99324.29;;;11.64;47.33
73566;BME280;61846;52.970;-3.168;2023-04-23T14:14:52;99325.07;;;12.37;44.40
73566;BME280;61846;52.970;-3.168;2023-04-23T14:17:18;99325.76;;;12.30;42.81
73566;BME280;61846;52.970;-3.168;2023-04-23T14:19:45;99321.30;;;12.74;42.98
73566;BME280;61846;52.970;-3.168;2023-04-23T14:22:10;99328.21;;;11.69;44.22
73566;BME280;61846;52.970;-3.168;2023-04-23T14:24:43;99332.66;;;12.45;42.27
73566;BME280;61846;52.970;-3.168;2023-04-23T14:27:00;99334.62;;;12.48;42.03
73566;BME280;61846;52.970;-3.168;2023-04-23T14:29:30;99338.39;;;11.27;42.01
73566;BME280;61846;52.970;-3.168;2023-04-23T14:31:52;99330.98;;;11.60;43.10
73566;BME280;61846;52.970;-3.168;2023-04-23T14:34:17;99329.12;;;11.99;42.81
73566;BME280;61846;52.970;-3.168;2023-04-23T14:36:43;99328.74;;;11.85;42.30
73566;BME280;61846;52.970;-3.168;2023-04-23T14:39:08;99330.02;;;12.56;43.55
73566;BME280;61846;52.970;-3.168;2023-04-23T14:41:33;99338.61;;;13.07;42.93
73566;BME280;61846;52.970;-3.168;2023-04-23T14:44:00;99340.95;;;11.96;42.03
73566;BME280;61846;52.970;-3.168;2023-04-23T14:46:24;99347.67;;;12.03;42.48
73566;BME280;61846;52.970;-3.168;2023-04-23T14:48:50;99350.08;;;12.13;43.53
73566;BME280;61846;52.970;-3.168;2023-04-23T14:51:15;99353.82;;;11.80;43.79
73566;BME280;61846;52.970;-3.168;2023-04-23T14:53:41;99352.96;;;11.79;45.39
73566;BME280;61846;52.970;-3.168;2023-04-23T14:56:06;99353.87;;;11.42;45.47
73566;BME280;61846;52.970;-3.168;2023-04-23T14:58:32;99350.89;;;12.30;43.72
73566;BME280;61846;52.970;-3.168;2023-04-23T15:00:58;99351.91;;;11.93;44.51
73566;BME280;61846;52.970;-3.168;2023-04-23T15:03:24;99356.46;;;12.07;42.33
73566;BME280;61846;52.970;-3.168;2023-04-23T15:05:49;99359.59;;;11.94;44.50
73566;BME280;61846;52.970;-3.168;2023-04-23T15:08:14;99361.77;;;11.75;44.80
73566;BME280;61846;52.970;-3.168;2023-04-23T15:10:40;99362.39;;;11.60;45.87
73566;BME280;61846;52.970;-3.168;2023-04-23T15:13:07;99364.50;;;11.38;45.25
73566;BME280;61846;52.970;-3.168;2023-04-23T15:15:41;99362.62;;;11.85;44.13
73566;BME280;61846;52.970;-3.168;2023-04-23T15:17:56;99366.59;;;12.18;44.75
73566;BME280;61846;52.970;-3.168;2023-04-23T15:20:21;99367.51;;;11.33;44.17
73566;BME280;61846;52.970;-3.168;2023-04-23T15:22:47;99374.36;;;11.23;45.41
73566;BME280;61846;52.970;-3.168;2023-04-23T15:25:13;99380.60;;;10.97;47.59
73566;BME280;61846;52.970;-3.168;2023-04-23T15:27:38;99379.50;;;12.00;46.16
73566;BME280;61846;52.970;-3.168;2023-04-23T15:30:04;99385.50;;;11.60;45.47
73566;BME280;61846;52.970;-3.168;2023-04-23T15:32:29;99387.63;;;11.21;46.12
73566;BME280;61846;52.970;-3.168;2023-04-23T15:34:55;99385.71;;;11.82;44.85
73566;BME280;61846;52.970;-3.168;2023-04-23T15:37:20;99384.10;;;11.91;43.96
73566;BME280;61846;52.970;-3.168;2023-04-23T15:39:46;99394.98;;;12.47;44.05
73566;BME280;61846;52.970;-3.168;2023-04-23T15:42:12;99396.20;;;12.07;44.27
73566;BME280;61846;52.970;-3.168;2023-04-23T15:44:37;99398.97;;;11.85;44.25
73566;BME280;61846;52.970;-3.168;2023-04-23T15:47:02;99404.63;;;10.94;47.03
73566;BME280;61846;52.970;-3.168;2023-04-23T15:49:27;99403.71;;;10.91;46.83
73566;BME280;61846;52.970;-3.168;2023-04-23T15:51:53;99401.70;;;11.52;46.25
73566;BME280;61846;52.970;-3.168;2023-04-23T15:54:19;99401.01;;;11.89;45.46
73566;BME280;61846;52.970;-3.168;2023-04-23T15:56:44;99401.51;;;12.66;44.07
73566;BME280;61846;52.970;-3.168;2023-04-23T15:59:09;99400.10;;;12.44;43.28
73566;BME280;61846;52.970;-3.168;2023-04-23T16:01:35;99402.42;;;12.47;43.69
73566;BME280;61846;52.970;-3.168;2023-04-23T16:04:00;99399.86;;;13.04;41.77
73566;BME280;61846;52.970;-3.168;2023-04-23T16:06:25;99398.43;;;12.91;42.36
73566;BME280;61846;52.970;-3.168;2023-04-23T16:08:51;99400.81;;;13.09;42.02
73566;BME280;61846;52.970;-3.168;2023-04-23T16:11:16;99402.08;;;12.82;42.49
73566;BME280;61846;52.970;-3.168;2023-04-23T16:13:42;99405.69;;;13.07;41.80
73566;BME280;61846;52.970;-3.168;2023-04-23T16:16:08;99403.20;;;12.20;42.94
73566;BME280;61846;52.970;-3.168;2023-04-23T16:18:33;99406.84;;;12.84;41.89
73566;BME280;61846;52.970;-3.168;2023-04-23T16:20:59;99412.67;;;12.66;42.96
73566;BME280;61846;52.970;-3.168;2023-04-23T16:23:25;99417.69;;;11.14;44.64
73566;BME280;61846;52.970;-3.168;2023-04-23T16:25:50;99425.31;;;11.64;44.83
73566;BME280;61846;52.970;-3.168;2023-04-23T16:28:15;99423.02;;;11.18;44.87
73566;BME280;61846;52.970;-3.168;2023-04-23T16:30:41;99423.83;;;11.21;44.38
73566;BME280;61846;52.970;-3.168;2023-04-23T16:33:06;99425.69;;;11.85;42.98
73566;BME280;61846;52.970;-3.168;2023-04-23T16:35:32;99431.34;;;11.99;43.81
73566;BME280;61846;52.970;-3.168;2023-04-23T16:37:57;99432.17;;;10.89;44.79
73566;BME280;61846;52.970;-3.168;2023-04-23T16:40:22;99438.54;;;11.41;44.44
73566;BME280;61846;52.970;-3.168;2023-04-23T16:42:48;99439.17;;;11.36;44.96
73566;BME280;61846;52.970;-3.168;2023-04-23T16:45:13;99446.28;;;11.53;44.91
73566;BME280;61846;52.970;-3.168;2023-04-23T16:47:39;99451.41;;;12.07;44.92
73566;BME280;61846;52.970;-3.168;2023-04-23T16:50:06;99458.07;;;11.50;44.98
73566;BME280;61846;52.970;-3.168;2023-04-23T16:52:30;99458.82;;;11.68;44.43
73566;BME280;61846;52.970;-3.168;2023-04-23T16:54:56;99462.93;;;11.75;44.16
73566;BME280;61846;52.970;-3.168;2023-04-23T16:57:21;99462.10;;;11.77;43.91
73566;BME280;61846;52.970;-3.168;2023-04-23T16:59:46;99467.11;;;11.51;44.05
73566;BME280;61846;52.970;-3.168;2023-04-23T17:02:11;99473.18;;;11.15;44.82
73566;BME280;61846;52.970;-3.168;2023-04-23T17:04:37;99471.06;;;11.91;43.05
73566;BME280;61846;52.970;-3.168;2023-04-23T17:07:02;99477.86;;;11.43;44.30
73566;BME280;61846;52.970;-3.168;2023-04-23T17:09:28;99478.27;;;11.11;44.49
73566;BME280;61846;52.970;-3.168;2023-04-23T17:11:53;99476.18;;;11.64;43.02
73566;BME280;61846;52.970;-3.168;2023-04-23T17:14:19;99478.93;;;11.41;42.42
73566;BME280;61846;52.970;-3.168;2023-04-23T17:16:44;99479.16;;;11.48;43.08
73566;BME280;61846;52.970;-3.168;2023-04-23T17:19:10;99478.11;;;11.61;42.46
73566;BME280;61846;52.970;-3.168;2023-04-23T17:21:36;99479.00;;;11.71;42.94
73566;BME280;61846;52.970;-3.168;2023-04-23T17:24:01;99475.46;;;12.36;41.75
73566;BME280;61846;52.970;-3.168;2023-04-23T17:26:26;99472.46;;;11.51;41.66
73566;BME280;61846;52.970;-3.168;2023-04-23T17:28:51;99471.48;;;12.52;41.47
73566;BME280;61846;52.970;-3.168;2023-04-23T17:31:17;99469.21;;;12.67;40.90
73566;BME280;61846;52.970;-3.168;2023-04-23T17:33:43;99473.44;;;12.61;41.56
73566;BME280;61846;52.970;-3.168;2023-04-23T17:36:08;99466.54;;;12.09;40.97
73566;BME280;61846;52.970;-3.168;2023-04-23T17:38:33;99469.36;;;12.32;39.88
73566;BME280;61846;52.970;-3.168;2023-04-23T17:40:59;99471.15;;;12.82;39.60
73566;BME280;61846;52.970;-3.168;2023-04-23T17:43:24;99478.82;;;12.13;39.84
73566;BME280;61846;52.970;-3.168;2023-04-23T17:45:50;99482.06;;;12.43;40.86
73566;BME280;61846;52.970;-3.168;2023-04-23T17:48:15;99485.84;;;11.56;40.26
73566;BME280;61846;52.970;-3.168;2023-04-23T17:50:41;99482.16;;;12.50;38.84
73566;BME280;61846;52.970;-3.168;2023-04-23T17:53:06;99485.13;;;10.79;41.29
73566;BME280;61846;52.970;-3.168;2023-04-23T17:55:32;99482.19;;;11.90;40.46
73566;BME280;61846;52.970;-3.168;2023-04-23T17:57:57;99481.20;;;12.18;39.23
73566;BME280;61846;52.970;-3.168;2023-04-23T18:00:23;99482.91;;;11.99;40.20
73566;BME280;61846;52.970;-3.168;2023-04-23T18:02:49;99487.79;;;11.91;40.41
73566;BME280;61846;52.970;-3.168;2023-04-23T18:05:16;99491.33;;;11.24;40.92